Aérodrome :
LOGIN :

S'inscrire | Disclaimer

   EN    FR    IT 

 










Légende :    VFR   VFR Marginal   IFR   IFR Intensif   IFR Très Intensif
Visi : 
Plafond : 
>= 8 km
>= 3000ft
5 à 8 km
1000 à 3000 ft
1500m à 5 km
500 à 1000 ft
800 à 1500m
200 à 500 ft
< 800m
< 200 ft
Symboles :   Orages  Brouillard  Fortes neiges  Fortes précipitations  Vent > 20 kt
SIGMETs :   Divers  Orages  Givrage  Turbulence  Onde Orograph.  Cendres Volcan.






- Altitude de l'aérodrome : 6 ft
- Code IATA : PSA


LIRP - Galileo Galilei Pisa

DERNIER METAR :
  • 260415Z 13003KT 0150 R04R//// FG VV001 06/06 Q1020 NOSIG

METARs EXPIRÉS :
  • 260345Z VRB02KT 0150 R04R//// FG VV001 06/06 Q1020 NOSIG
  • 260315Z 14005KT 0300 R04R//// FG BKN001 05/05 Q1021 NOSIG
  • 260245Z 17002KT 0300 R04R//// FG BKN001 06/06 Q1021 NOSIG
  • 260215Z VRB01KT 0300 R04R//// FG BKN001 06/06 Q1021 NOSIG
  • 260145Z 12003KT 0300 R04R//// FG BKN001 07/07 Q1021 NOSIG

TAF TAF LIRP
Valide du 26 à 00h jusqu'au 27 à 00h UTC


252300Z 2600/2624 10005KT 9999 SCT040
TEMPO 2600/2608 4000 BR
PROB30
TEMPO 2600/2607 0500 FG BKN002
BECMG 2616/2618 4000 BR
TEMPO 2620/2624 0500 FG BKN002



MET'MAP, la Météo Aéronautique d'un coup d'oeil ! - Copyright ORBIFLY Décembre 2007 - Disclaimer

ORBIFLY MET'MAP TEAM :

Programmation & Développement : Alexandra Zaïnal
Sur une idée originale de : Baudouin d'Aumeries
Assistance à la programmation : Marc-Olivier Méhu
Soutien technique & logistique : Manuel Goepfert

Contact : metmap@orbifly.com




SOURCES & CREDITS :

   NOAA